sensor_id;sensor_type;location;lat;lon;timestamp;P1;durP1;ratioP1;P2;durP2;ratioP2
47273;SDS011;33007;49.082;19.306;2022-10-15T00:01:13;37.97;;;30.63;;
47273;SDS011;33007;49.082;19.306;2022-10-15T00:03:41;38.17;;;30.25;;
47273;SDS011;33007;49.082;19.306;2022-10-15T00:06:09;40.08;;;30.90;;
47273;SDS011;33007;49.082;19.306;2022-10-15T00:08:37;41.90;;;31.73;;
47273;SDS011;33007;49.082;19.306;2022-10-15T00:11:05;43.05;;;31.88;;
47273;SDS011;33007;49.082;19.306;2022-10-15T00:13:33;43.25;;;33.55;;
47273;SDS011;33007;49.082;19.306;2022-10-15T00:15:59;41.17;;;31.77;;
47273;SDS011;33007;49.082;19.306;2022-10-15T00:18:25;51.78;;;36.53;;
47273;SDS011;33007;49.082;19.306;2022-10-15T00:20:51;48.30;;;33.38;;
47273;SDS011;33007;49.082;19.306;2022-10-15T00:23:17;54.58;;;34.42;;
47273;SDS011;33007;49.082;19.306;2022-10-15T00:25:43;48.05;;;33.53;;
47273;SDS011;33007;49.082;19.306;2022-10-15T00:28:08;49.35;;;33.95;;
47273;SDS011;33007;49.082;19.306;2022-10-15T00:30:34;50.55;;;32.50;;
47273;SDS011;33007;49.082;19.306;2022-10-15T00:33:00;46.80;;;32.03;;
47273;SDS011;33007;49.082;19.306;2022-10-15T00:35:26;53.92;;;32.97;;
47273;SDS011;33007;49.082;19.306;2022-10-15T00:37:52;46.78;;;32.55;;
47273;SDS011;33007;49.082;19.306;2022-10-15T00:40:18;50.13;;;32.25;;
47273;SDS011;33007;49.082;19.306;2022-10-15T00:42:44;43.15;;;31.25;;
47273;SDS011;33007;49.082;19.306;2022-10-15T00:45:11;47.63;;;31.63;;
47273;SDS011;33007;49.082;19.306;2022-10-15T00:47:43;45.35;;;31.00;;
47273;SDS011;33007;49.082;19.306;2022-10-15T00:50:20;43.47;;;30.05;;
47273;SDS011;33007;49.082;19.306;2022-10-15T00:58:20;41.45;;;28.67;;
47273;SDS011;33007;49.082;19.306;2022-10-15T01:00:55;43.03;;;29.73;;
47273;SDS011;33007;49.082;19.306;2022-10-15T01:03:21;40.65;;;27.80;;
47273;SDS011;33007;49.082;19.306;2022-10-15T01:05:48;44.70;;;30.13;;
47273;SDS011;33007;49.082;19.306;2022-10-15T01:08:16;50.45;;;29.00;;
47273;SDS011;33007;49.082;19.306;2022-10-15T01:16:29;36.35;;;26.88;;
47273;SDS011;33007;49.082;19.306;2022-10-15T01:22:05;36.47;;;26.92;;
47273;SDS011;33007;49.082;19.306;2022-10-15T01:24:43;39.08;;;28.85;;
47273;SDS011;33007;49.082;19.306;2022-10-15T01:27:45;36.83;;;26.75;;
47273;SDS011;33007;49.082;19.306;2022-10-15T01:30:39;39.45;;;27.35;;
47273;SDS011;33007;49.082;19.306;2022-10-15T01:35:50;36.80;;;27.50;;
47273;SDS011;33007;49.082;19.306;2022-10-15T01:38:46;42.30;;;28.08;;
47273;SDS011;33007;49.082;19.306;2022-10-15T01:44:40;35.05;;;27.48;;
47273;SDS011;33007;49.082;19.306;2022-10-15T01:47:13;36.65;;;26.65;;
47273;SDS011;33007;49.082;19.306;2022-10-15T01:49:48;38.03;;;26.30;;
47273;SDS011;33007;49.082;19.306;2022-10-15T01:52:20;39.37;;;26.80;;
47273;SDS011;33007;49.082;19.306;2022-10-15T01:54:49;37.70;;;25.80;;
47273;SDS011;33007;49.082;19.306;2022-10-15T01:57:17;35.35;;;26.25;;
47273;SDS011;33007;49.082;19.306;2022-10-15T01:59:45;39.85;;;29.02;;
47273;SDS011;33007;49.082;19.306;2022-10-15T02:02:11;39.17;;;27.50;;
47273;SDS011;33007;49.082;19.306;2022-10-15T02:04:38;40.95;;;28.55;;
47273;SDS011;33007;49.082;19.306;2022-10-15T02:07:14;40.83;;;28.92;;
47273;SDS011;33007;49.082;19.306;2022-10-15T02:09:49;37.97;;;28.17;;
47273;SDS011;33007;49.082;19.306;2022-10-15T02:15:25;38.05;;;27.80;;
47273;SDS011;33007;49.082;19.306;2022-10-15T02:20:43;36.80;;;26.17;;
47273;SDS011;33007;49.082;19.306;2022-10-15T02:23:32;59.88;;;28.30;;
47273;SDS011;33007;49.082;19.306;2022-10-15T02:26:00;39.88;;;28.08;;
47273;SDS011;33007;49.082;19.306;2022-10-15T02:28:28;39.17;;;27.40;;
47273;SDS011;33007;49.082;19.306;2022-10-15T02:30:57;40.80;;;29.00;;
47273;SDS011;33007;49.082;19.306;2022-10-15T02:33:23;38.13;;;27.45;;
47273;SDS011;33007;49.082;19.306;2022-10-15T02:35:51;41.72;;;27.88;;
47273;SDS011;33007;49.082;19.306;2022-10-15T02:38:19;38.75;;;27.75;;
47273;SDS011;33007;49.082;19.306;2022-10-15T02:40:49;34.88;;;25.98;;
47273;SDS011;33007;49.082;19.306;2022-10-15T02:43:18;32.63;;;25.15;;
47273;SDS011;33007;49.082;19.306;2022-10-15T02:45:45;30.30;;;23.63;;
47273;SDS011;33007;49.082;19.306;2022-10-15T02:48:12;30.83;;;24.05;;
47273;SDS011;33007;49.082;19.306;2022-10-15T02:50:38;30.13;;;23.98;;
47273;SDS011;33007;49.082;19.306;2022-10-15T02:53:03;32.65;;;24.88;;
47273;SDS011;33007;49.082;19.306;2022-10-15T02:55:30;32.05;;;24.65;;
47273;SDS011;33007;49.082;19.306;2022-10-15T02:57:55;47.80;;;25.00;;
47273;SDS011;33007;49.082;19.306;2022-10-15T03:00:21;36.63;;;23.77;;
47273;SDS011;33007;49.082;19.306;2022-10-15T03:02:47;32.75;;;23.80;;
47273;SDS011;33007;49.082;19.306;2022-10-15T03:05:13;31.65;;;22.83;;
47273;SDS011;33007;49.082;19.306;2022-10-15T03:07:38;28.73;;;23.38;;
47273;SDS011;33007;49.082;19.306;2022-10-15T03:10:05;28.75;;;22.92;;
47273;SDS011;33007;49.082;19.306;2022-10-15T03:12:31;29.65;;;23.33;;
47273;SDS011;33007;49.082;19.306;2022-10-15T03:14:56;34.80;;;24.60;;
47273;SDS011;33007;49.082;19.306;2022-10-15T03:17:22;32.88;;;24.08;;
47273;SDS011;33007;49.082;19.306;2022-10-15T03:19:48;31.20;;;23.35;;
47273;SDS011;33007;49.082;19.306;2022-10-15T03:22:14;33.75;;;24.35;;
47273;SDS011;33007;49.082;19.306;2022-10-15T03:24:40;31.15;;;24.00;;
47273;SDS011;33007;49.082;19.306;2022-10-15T03:27:06;35.78;;;25.83;;
47273;SDS011;33007;49.082;19.306;2022-10-15T03:29:31;56.13;;;27.73;;
47273;SDS011;33007;49.082;19.306;2022-10-15T03:31:57;34.47;;;25.65;;
47273;SDS011;33007;49.082;19.306;2022-10-15T03:34:23;35.25;;;25.73;;
47273;SDS011;33007;49.082;19.306;2022-10-15T03:36:49;35.47;;;25.15;;
47273;SDS011;33007;49.082;19.306;2022-10-15T03:39:15;32.35;;;23.90;;
47273;SDS011;33007;49.082;19.306;2022-10-15T03:41:40;31.98;;;23.55;;
47273;SDS011;33007;49.082;19.306;2022-10-15T03:44:06;37.88;;;23.80;;
47273;SDS011;33007;49.082;19.306;2022-10-15T03:46:33;33.80;;;23.73;;
47273;SDS011;33007;49.082;19.306;2022-10-15T03:48:59;33.22;;;23.88;;
47273;SDS011;33007;49.082;19.306;2022-10-15T03:51:25;31.58;;;23.98;;
47273;SDS011;33007;49.082;19.306;2022-10-15T03:53:51;31.85;;;22.70;;
47273;SDS011;33007;49.082;19.306;2022-10-15T03:56:17;30.17;;;22.55;;
47273;SDS011;33007;49.082;19.306;2022-10-15T03:58:43;33.22;;;24.30;;
47273;SDS011;33007;49.082;19.306;2022-10-15T04:01:10;30.60;;;24.05;;
47273;SDS011;33007;49.082;19.306;2022-10-15T04:03:37;34.85;;;25.42;;
47273;SDS011;33007;49.082;19.306;2022-10-15T04:06:03;30.30;;;23.23;;
47273;SDS011;33007;49.082;19.306;2022-10-15T04:08:29;37.97;;;23.10;;
47273;SDS011;33007;49.082;19.306;2022-10-15T04:10:54;33.30;;;22.10;;
47273;SDS011;33007;49.082;19.306;2022-10-15T04:13:20;33.70;;;22.88;;
47273;SDS011;33007;49.082;19.306;2022-10-15T04:15:46;31.33;;;22.15;;
47273;SDS011;33007;49.082;19.306;2022-10-15T04:18:12;27.13;;;21.10;;
47273;SDS011;33007;49.082;19.306;2022-10-15T04:20:38;29.40;;;20.98;;
47273;SDS011;33007;49.082;19.306;2022-10-15T04:23:04;29.20;;;22.58;;
47273;SDS011;33007;49.082;19.306;2022-10-15T04:25:30;30.38;;;23.67;;
47273;SDS011;33007;49.082;19.306;2022-10-15T04:27:56;28.52;;;21.10;;
47273;SDS011;33007;49.082;19.306;2022-10-15T04:30:22;31.60;;;24.10;;
47273;SDS011;33007;49.082;19.306;2022-10-15T04:32:50;33.60;;;24.60;;
47273;SDS011;33007;49.082;19.306;2022-10-15T04:35:16;30.50;;;24.17;;
47273;SDS011;33007;49.082;19.306;2022-10-15T04:37:42;33.72;;;26.00;;
47273;SDS011;33007;49.082;19.306;2022-10-15T04:40:08;29.73;;;24.40;;
47273;SDS011;33007;49.082;19.306;2022-10-15T04:42:34;32.58;;;25.10;;
47273;SDS011;33007;49.082;19.306;2022-10-15T04:44:59;32.03;;;24.75;;
47273;SDS011;33007;49.082;19.306;2022-10-15T04:47:26;32.38;;;25.05;;
47273;SDS011;33007;49.082;19.306;2022-10-15T04:49:55;29.25;;;23.75;;
47273;SDS011;33007;49.082;19.306;2022-10-15T04:52:20;34.33;;;24.27;;
47273;SDS011;33007;49.082;19.306;2022-10-15T04:54:46;32.20;;;26.05;;
47273;SDS011;33007;49.082;19.306;2022-10-15T04:57:12;30.17;;;24.38;;
47273;SDS011;33007;49.082;19.306;2022-10-15T04:59:38;42.38;;;24.88;;
47273;SDS011;33007;49.082;19.306;2022-10-15T05:02:04;34.40;;;27.25;;
47273;SDS011;33007;49.082;19.306;2022-10-15T05:04:29;33.45;;;25.52;;
47273;SDS011;33007;49.082;19.306;2022-10-15T05:06:55;28.73;;;24.23;;
47273;SDS011;33007;49.082;19.306;2022-10-15T05:09:21;30.27;;;24.00;;
47273;SDS011;33007;49.082;19.306;2022-10-15T05:11:47;29.75;;;22.83;;
47273;SDS011;33007;49.082;19.306;2022-10-15T05:14:13;31.70;;;24.30;;
47273;SDS011;33007;49.082;19.306;2022-10-15T05:16:39;33.25;;;25.42;;
47273;SDS011;33007;49.082;19.306;2022-10-15T05:19:09;31.58;;;26.15;;
47273;SDS011;33007;49.082;19.306;2022-10-15T05:21:35;33.00;;;26.60;;
47273;SDS011;33007;49.082;19.306;2022-10-15T05:24:02;32.83;;;26.73;;
47273;SDS011;33007;49.082;19.306;2022-10-15T05:26:29;34.92;;;27.50;;
47273;SDS011;33007;49.082;19.306;2022-10-15T05:28:57;32.95;;;26.88;;
47273;SDS011;33007;49.082;19.306;2022-10-15T05:31:28;117.13;;;30.08;;
47273;SDS011;33007;49.082;19.306;2022-10-15T05:33:57;34.22;;;27.02;;
47273;SDS011;33007;49.082;19.306;2022-10-15T05:36:24;34.38;;;26.90;;
47273;SDS011;33007;49.082;19.306;2022-10-15T05:38:53;33.50;;;26.13;;
47273;SDS011;33007;49.082;19.306;2022-10-15T05:41:18;33.25;;;26.17;;
47273;SDS011;33007;49.082;19.306;2022-10-15T05:43:48;32.83;;;26.08;;
47273;SDS011;33007;49.082;19.306;2022-10-15T05:46:15;35.65;;;25.67;;
47273;SDS011;33007;49.082;19.306;2022-10-15T05:48:42;30.08;;;23.10;;
47273;SDS011;33007;49.082;19.306;2022-10-15T05:51:11;115.35;;;27.63;;
47273;SDS011;33007;49.082;19.306;2022-10-15T05:53:37;31.80;;;22.73;;
47273;SDS011;33007;49.082;19.306;2022-10-15T05:56:04;33.78;;;23.48;;
47273;SDS011;33007;49.082;19.306;2022-10-15T05:58:31;27.67;;;23.27;;
47273;SDS011;33007;49.082;19.306;2022-10-15T06:01:00;33.63;;;23.05;;
47273;SDS011;33007;49.082;19.306;2022-10-15T06:03:29;27.50;;;21.83;;
47273;SDS011;33007;49.082;19.306;2022-10-15T06:05:55;33.42;;;23.40;;
47273;SDS011;33007;49.082;19.306;2022-10-15T06:08:21;29.67;;;23.08;;
47273;SDS011;33007;49.082;19.306;2022-10-15T06:10:47;31.88;;;23.75;;
47273;SDS011;33007;49.082;19.306;2022-10-15T06:13:13;38.72;;;22.55;;
47273;SDS011;33007;49.082;19.306;2022-10-15T06:15:40;42.20;;;23.17;;
47273;SDS011;33007;49.082;19.306;2022-10-15T06:18:08;27.58;;;21.88;;
47273;SDS011;33007;49.082;19.306;2022-10-15T06:20:35;33.83;;;22.83;;
47273;SDS011;33007;49.082;19.306;2022-10-15T06:23:02;28.95;;;22.10;;
47273;SDS011;33007;49.082;19.306;2022-10-15T06:25:29;218.88;;;34.45;;
47273;SDS011;33007;49.082;19.306;2022-10-15T06:28:05;37.10;;;24.00;;
47273;SDS011;33007;49.082;19.306;2022-10-15T06:30:31;35.00;;;23.00;;
47273;SDS011;33007;49.082;19.306;2022-10-15T06:32:57;31.75;;;24.33;;
47273;SDS011;33007;49.082;19.306;2022-10-15T06:35:23;30.88;;;23.08;;
47273;SDS011;33007;49.082;19.306;2022-10-15T06:37:51;30.90;;;23.35;;
47273;SDS011;33007;49.082;19.306;2022-10-15T06:40:17;30.67;;;23.52;;
47273;SDS011;33007;49.082;19.306;2022-10-15T06:42:42;28.08;;;22.23;;
47273;SDS011;33007;49.082;19.306;2022-10-15T06:45:09;30.23;;;22.75;;
47273;SDS011;33007;49.082;19.306;2022-10-15T06:47:36;28.85;;;22.67;;
47273;SDS011;33007;49.082;19.306;2022-10-15T06:50:04;31.63;;;23.42;;
47273;SDS011;33007;49.082;19.306;2022-10-15T06:52:31;32.30;;;24.10;;
47273;SDS011;33007;49.082;19.306;2022-10-15T06:54:56;30.23;;;23.00;;
47273;SDS011;33007;49.082;19.306;2022-10-15T06:57:22;27.85;;;22.48;;
47273;SDS011;33007;49.082;19.306;2022-10-15T06:59:50;29.38;;;23.77;;
47273;SDS011;33007;49.082;19.306;2022-10-15T07:02:15;27.50;;;22.73;;
47273;SDS011;33007;49.082;19.306;2022-10-15T07:04:43;31.20;;;22.88;;
47273;SDS011;33007;49.082;19.306;2022-10-15T07:07:12;30.38;;;23.05;;
47273;SDS011;33007;49.082;19.306;2022-10-15T07:09:38;29.10;;;22.50;;
47273;SDS011;33007;49.082;19.306;2022-10-15T07:12:04;29.02;;;23.15;;
47273;SDS011;33007;49.082;19.306;2022-10-15T07:14:30;30.63;;;23.42;;
47273;SDS011;33007;49.082;19.306;2022-10-15T07:16:56;34.25;;;23.77;;
47273;SDS011;33007;49.082;19.306;2022-10-15T07:19:22;33.33;;;23.83;;
47273;SDS011;33007;49.082;19.306;2022-10-15T07:21:48;28.73;;;23.00;;
47273;SDS011;33007;49.082;19.306;2022-10-15T07:24:14;31.08;;;22.52;;
47273;SDS011;33007;49.082;19.306;2022-10-15T07:26:39;29.48;;;22.60;;
47273;SDS011;33007;49.082;19.306;2022-10-15T07:29:05;29.92;;;22.67;;
47273;SDS011;33007;49.082;19.306;2022-10-15T07:31:31;28.95;;;22.70;;
47273;SDS011;33007;49.082;19.306;2022-10-15T07:33:58;29.52;;;21.85;;
47273;SDS011;33007;49.082;19.306;2022-10-15T07:36:24;28.42;;;22.65;;
47273;SDS011;33007;49.082;19.306;2022-10-15T07:38:50;28.80;;;22.75;;
47273;SDS011;33007;49.082;19.306;2022-10-15T07:41:16;29.63;;;22.50;;
47273;SDS011;33007;49.082;19.306;2022-10-15T07:43:42;30.40;;;23.45;;
47273;SDS011;33007;49.082;19.306;2022-10-15T07:46:08;29.30;;;23.08;;
47273;SDS011;33007;49.082;19.306;2022-10-15T07:48:34;29.08;;;22.42;;
47273;SDS011;33007;49.082;19.306;2022-10-15T07:51:01;27.88;;;21.73;;
47273;SDS011;33007;49.082;19.306;2022-10-15T07:53:31;25.77;;;20.58;;
47273;SDS011;33007;49.082;19.306;2022-10-15T07:56:01;27.17;;;19.88;;
47273;SDS011;33007;49.082;19.306;2022-10-15T07:58:31;27.52;;;19.73;;
47273;SDS011;33007;49.082;19.306;2022-10-15T08:00:59;25.95;;;19.77;;
47273;SDS011;33007;49.082;19.306;2022-10-15T08:03:26;25.00;;;20.30;;
47273;SDS011;33007;49.082;19.306;2022-10-15T08:05:52;24.58;;;18.83;;
47273;SDS011;33007;49.082;19.306;2022-10-15T08:08:20;19.92;;;16.45;;
47273;SDS011;33007;49.082;19.306;2022-10-15T08:10:46;24.80;;;18.70;;
47273;SDS011;33007;49.082;19.306;2022-10-15T08:13:12;21.30;;;14.60;;
47273;SDS011;33007;49.082;19.306;2022-10-15T08:15:38;19.83;;;16.60;;
47273;SDS011;33007;49.082;19.306;2022-10-15T08:18:05;21.02;;;17.08;;
47273;SDS011;33007;49.082;19.306;2022-10-15T08:20:31;18.95;;;15.75;;
47273;SDS011;33007;49.082;19.306;2022-10-15T08:22:57;20.50;;;16.20;;
47273;SDS011;33007;49.082;19.306;2022-10-15T08:25:23;17.13;;;15.18;;
47273;SDS011;33007;49.082;19.306;2022-10-15T08:27:49;22.00;;;14.38;;
47273;SDS011;33007;49.082;19.306;2022-10-15T08:30:17;20.75;;;14.60;;
47273;SDS011;33007;49.082;19.306;2022-10-15T08:32:42;19.77;;;14.75;;
47273;SDS011;33007;49.082;19.306;2022-10-15T08:35:08;16.95;;;14.40;;
47273;SDS011;33007;49.082;19.306;2022-10-15T08:37:34;17.30;;;13.55;;
47273;SDS011;33007;49.082;19.306;2022-10-15T08:39:59;18.50;;;14.05;;
47273;SDS011;33007;49.082;19.306;2022-10-15T08:42:27;19.42;;;13.70;;
47273;SDS011;33007;49.082;19.306;2022-10-15T08:45:01;16.25;;;13.63;;
47273;SDS011;33007;49.082;19.306;2022-10-15T08:47:39;17.42;;;14.65;;
47273;SDS011;33007;49.082;19.306;2022-10-15T08:50:19;16.92;;;13.70;;
47273;SDS011;33007;49.082;19.306;2022-10-15T08:53:11;17.35;;;13.80;;
47273;SDS011;33007;49.082;19.306;2022-10-15T08:55:44;16.00;;;12.30;;
47273;SDS011;33007;49.082;19.306;2022-10-15T09:00:49;14.50;;;12.43;;
47273;SDS011;33007;49.082;19.306;2022-10-15T09:05:54;16.90;;;14.25;;
47273;SDS011;33007;49.082;19.306;2022-10-15T09:14:09;18.25;;;12.63;;
47273;SDS011;33007;49.082;19.306;2022-10-15T09:16:39;17.67;;;12.50;;
47273;SDS011;33007;49.082;19.306;2022-10-15T09:19:12;15.00;;;12.98;;
47273;SDS011;33007;49.082;19.306;2022-10-15T09:21:44;16.60;;;13.40;;
47273;SDS011;33007;49.082;19.306;2022-10-15T09:24:12;14.63;;;11.18;;
47273;SDS011;33007;49.082;19.306;2022-10-15T09:32:24;14.88;;;11.98;;
47273;SDS011;33007;49.082;19.306;2022-10-15T09:35:00;16.48;;;13.13;;
47273;SDS011;33007;49.082;19.306;2022-10-15T09:40:11;12.82;;;11.38;;
47273;SDS011;33007;49.082;19.306;2022-10-15T09:42:52;12.00;;;10.68;;
47273;SDS011;33007;49.082;19.306;2022-10-15T09:45:19;14.85;;;11.00;;
47273;SDS011;33007;49.082;19.306;2022-10-15T09:47:50;12.68;;;11.05;;
47273;SDS011;33007;49.082;19.306;2022-10-15T09:50:17;16.33;;;11.52;;
47273;SDS011;33007;49.082;19.306;2022-10-15T09:52:59;16.55;;;11.10;;
47273;SDS011;33007;49.082;19.306;2022-10-15T09:58:28;14.82;;;11.45;;
47273;SDS011;33007;49.082;19.306;2022-10-15T10:03:26;13.80;;;12.00;;
47273;SDS011;33007;49.082;19.306;2022-10-15T10:06:12;12.82;;;10.25;;
47273;SDS011;33007;49.082;19.306;2022-10-15T10:08:40;13.43;;;10.52;;
47273;SDS011;33007;49.082;19.306;2022-10-15T10:11:14;12.98;;;10.05;;
47273;SDS011;33007;49.082;19.306;2022-10-15T10:13:51;12.45;;;10.52;;
47273;SDS011;33007;49.082;19.306;2022-10-15T10:16:20;12.90;;;10.10;;
47273;SDS011;33007;49.082;19.306;2022-10-15T10:19:20;13.70;;;10.55;;
47273;SDS011;33007;49.082;19.306;2022-10-15T10:21:41;11.95;;;10.13;;
47273;SDS011;33007;49.082;19.306;2022-10-15T10:24:17;13.18;;;10.50;;
47273;SDS011;33007;49.082;19.306;2022-10-15T10:26:59;14.85;;;10.20;;
47273;SDS011;33007;49.082;19.306;2022-10-15T10:29:26;12.55;;;9.73;;
47273;SDS011;33007;49.082;19.306;2022-10-15T10:31:52;12.88;;;9.25;;
47273;SDS011;33007;49.082;19.306;2022-10-15T10:34:26;17.40;;;8.90;;
47273;SDS011;33007;49.082;19.306;2022-10-15T10:36:54;21.65;;;9.45;;
47273;SDS011;33007;49.082;19.306;2022-10-15T10:39:30;11.02;;;8.80;;
47273;SDS011;33007;49.082;19.306;2022-10-15T10:41:59;11.68;;;9.10;;
47273;SDS011;33007;49.082;19.306;2022-10-15T10:47:21;12.52;;;9.77;;
47273;SDS011;33007;49.082;19.306;2022-10-15T10:49:49;9.13;;;8.10;;
47273;SDS011;33007;49.082;19.306;2022-10-15T10:52:18;9.55;;;7.68;;
47273;SDS011;33007;49.082;19.306;2022-10-15T10:54:44;8.93;;;7.63;;
47273;SDS011;33007;49.082;19.306;2022-10-15T10:57:12;8.02;;;7.15;;
47273;SDS011;33007;49.082;19.306;2022-10-15T10:59:50;11.10;;;8.23;;
47273;SDS011;33007;49.082;19.306;2022-10-15T11:02:18;11.30;;;7.80;;
47273;SDS011;33007;49.082;19.306;2022-10-15T11:04:44;10.15;;;7.43;;
47273;SDS011;33007;49.082;19.306;2022-10-15T11:09:47;8.57;;;7.35;;
47273;SDS011;33007;49.082;19.306;2022-10-15T11:17:51;11.75;;;7.50;;
47273;SDS011;33007;49.082;19.306;2022-10-15T11:23:36;7.68;;;6.40;;
47273;SDS011;33007;49.082;19.306;2022-10-15T11:29:11;7.60;;;6.85;;
47273;SDS011;33007;49.082;19.306;2022-10-15T11:43:22;12.93;;;7.75;;
47273;SDS011;33007;49.082;19.306;2022-10-15T11:48:50;9.20;;;7.68;;
47273;SDS011;33007;49.082;19.306;2022-10-15T11:56:55;8.20;;;7.30;;
47273;SDS011;33007;49.082;19.306;2022-10-15T11:59:39;9.35;;;7.75;;
47273;SDS011;33007;49.082;19.306;2022-10-15T12:02:18;8.52;;;7.25;;
47273;SDS011;33007;49.082;19.306;2022-10-15T12:05:07;10.70;;;7.93;;
47273;SDS011;33007;49.082;19.306;2022-10-15T12:07:45;9.60;;;7.30;;
47273;SDS011;33007;49.082;19.306;2022-10-15T12:10:17;7.80;;;6.93;;
47273;SDS011;33007;49.082;19.306;2022-10-15T12:21:25;9.15;;;6.72;;
47273;SDS011;33007;49.082;19.306;2022-10-15T12:24:03;13.13;;;8.73;;
47273;SDS011;33007;49.082;19.306;2022-10-15T12:26:34;11.27;;;8.00;;
47273;SDS011;33007;49.082;19.306;2022-10-15T12:29:05;8.63;;;7.00;;
47273;SDS011;33007;49.082;19.306;2022-10-15T12:31:48;10.38;;;7.50;;
47273;SDS011;33007;49.082;19.306;2022-10-15T12:34:58;8.02;;;7.22;;
47273;SDS011;33007;49.082;19.306;2022-10-15T12:37:15;11.85;;;7.10;;
47273;SDS011;33007;49.082;19.306;2022-10-15T12:39:42;10.27;;;6.72;;
47273;SDS011;33007;49.082;19.306;2022-10-15T12:42:20;9.73;;;6.55;;
47273;SDS011;33007;49.082;19.306;2022-10-15T12:45:02;8.48;;;6.53;;
47273;SDS011;33007;49.082;19.306;2022-10-15T12:50:28;10.75;;;7.10;;
47273;SDS011;33007;49.082;19.306;2022-10-15T12:55:30;13.32;;;7.13;;
47273;SDS011;33007;49.082;19.306;2022-10-15T12:57:58;9.40;;;6.90;;
47273;SDS011;33007;49.082;19.306;2022-10-15T13:00:29;9.35;;;7.15;;
47273;SDS011;33007;49.082;19.306;2022-10-15T13:03:07;11.13;;;7.00;;
47273;SDS011;33007;49.082;19.306;2022-10-15T13:05:38;11.05;;;7.53;;
47273;SDS011;33007;49.082;19.306;2022-10-15T13:08:12;10.30;;;6.90;;
47273;SDS011;33007;49.082;19.306;2022-10-15T13:10:48;8.80;;;7.15;;
47273;SDS011;33007;49.082;19.306;2022-10-15T13:13:18;9.82;;;7.40;;
47273;SDS011;33007;49.082;19.306;2022-10-15T13:15:58;14.80;;;7.57;;
47273;SDS011;33007;49.082;19.306;2022-10-15T13:18:25;8.73;;;7.28;;
47273;SDS011;33007;49.082;19.306;2022-10-15T13:20:55;8.27;;;7.13;;
47273;SDS011;33007;49.082;19.306;2022-10-15T13:23:23;9.27;;;7.50;;
47273;SDS011;33007;49.082;19.306;2022-10-15T13:28:42;15.93;;;8.38;;
47273;SDS011;33007;49.082;19.306;2022-10-15T13:31:22;13.63;;;8.30;;
47273;SDS011;33007;49.082;19.306;2022-10-15T13:33:51;8.75;;;7.25;;
47273;SDS011;33007;49.082;19.306;2022-10-15T13:36:22;10.45;;;7.43;;
47273;SDS011;33007;49.082;19.306;2022-10-15T13:38:51;10.07;;;7.47;;
47273;SDS011;33007;49.082;19.306;2022-10-15T13:41:37;9.18;;;8.20;;
47273;SDS011;33007;49.082;19.306;2022-10-15T13:44:16;10.48;;;7.72;;
47273;SDS011;33007;49.082;19.306;2022-10-15T13:46:45;10.20;;;7.57;;
47273;SDS011;33007;49.082;19.306;2022-10-15T13:49:11;11.82;;;7.90;;
47273;SDS011;33007;49.082;19.306;2022-10-15T13:51:41;11.82;;;8.25;;
47273;SDS011;33007;49.082;19.306;2022-10-15T13:54:16;8.48;;;7.47;;
47273;SDS011;33007;49.082;19.306;2022-10-15T13:56:49;7.85;;;7.05;;
47273;SDS011;33007;49.082;19.306;2022-10-15T13:59:19;8.48;;;7.07;;
47273;SDS011;33007;49.082;19.306;2022-10-15T14:01:46;8.57;;;7.47;;
47273;SDS011;33007;49.082;19.306;2022-10-15T14:04:20;11.38;;;7.88;;
47273;SDS011;33007;49.082;19.306;2022-10-15T14:06:57;13.43;;;7.32;;
47273;SDS011;33007;49.082;19.306;2022-10-15T14:09:37;17.60;;;8.07;;
47273;SDS011;33007;49.082;19.306;2022-10-15T14:12:07;9.85;;;7.97;;
47273;SDS011;33007;49.082;19.306;2022-10-15T14:17:04;13.00;;;7.88;;
47273;SDS011;33007;49.082;19.306;2022-10-15T14:19:33;9.70;;;8.00;;
47273;SDS011;33007;49.082;19.306;2022-10-15T14:22:02;12.00;;;7.60;;
47273;SDS011;33007;49.082;19.306;2022-10-15T14:24:33;9.43;;;7.63;;
47273;SDS011;33007;49.082;19.306;2022-10-15T14:27:23;10.88;;;7.78;;
47273;SDS011;33007;49.082;19.306;2022-10-15T14:29:55;10.10;;;8.00;;
47273;SDS011;33007;49.082;19.306;2022-10-15T14:32:24;30.08;;;9.10;;
47273;SDS011;33007;49.082;19.306;2022-10-15T14:34:52;13.20;;;8.05;;
47273;SDS011;33007;49.082;19.306;2022-10-15T14:42:37;11.73;;;8.20;;
47273;SDS011;33007;49.082;19.306;2022-10-15T14:47:50;14.68;;;8.95;;
47273;SDS011;33007;49.082;19.306;2022-10-15T14:50:19;11.73;;;8.02;;
47273;SDS011;33007;49.082;19.306;2022-10-15T14:52:48;10.20;;;8.68;;
47273;SDS011;33007;49.082;19.306;2022-10-15T14:57:48;11.40;;;8.98;;
47273;SDS011;33007;49.082;19.306;2022-10-15T15:02:55;10.60;;;8.77;;
47273;SDS011;33007;49.082;19.306;2022-10-15T15:05:25;26.27;;;9.18;;
47273;SDS011;33007;49.082;19.306;2022-10-15T15:07:53;11.23;;;9.30;;
47273;SDS011;33007;49.082;19.306;2022-10-15T15:10:22;14.68;;;9.88;;
47273;SDS011;33007;49.082;19.306;2022-10-15T15:12:51;11.70;;;9.40;;
47273;SDS011;33007;49.082;19.306;2022-10-15T15:15:19;10.60;;;8.82;;
47273;SDS011;33007;49.082;19.306;2022-10-15T15:17:46;11.88;;;9.50;;
47273;SDS011;33007;49.082;19.306;2022-10-15T15:20:13;13.80;;;9.38;;
47273;SDS011;33007;49.082;19.306;2022-10-15T15:22:39;12.68;;;9.95;;
47273;SDS011;33007;49.082;19.306;2022-10-15T15:25:12;12.75;;;9.63;;
47273;SDS011;33007;49.082;19.306;2022-10-15T15:27:40;14.18;;;10.55;;
47273;SDS011;33007;49.082;19.306;2022-10-15T15:30:06;15.55;;;9.70;;
47273;SDS011;33007;49.082;19.306;2022-10-15T15:32:38;12.80;;;9.65;;
47273;SDS011;33007;49.082;19.306;2022-10-15T15:35:08;12.02;;;9.73;;
47273;SDS011;33007;49.082;19.306;2022-10-15T15:37:40;107.53;;;14.00;;
47273;SDS011;33007;49.082;19.306;2022-10-15T15:40:06;14.45;;;9.98;;
47273;SDS011;33007;49.082;19.306;2022-10-15T15:42:32;11.75;;;10.13;;
47273;SDS011;33007;49.082;19.306;2022-10-15T15:44:58;12.73;;;10.40;;
47273;SDS011;33007;49.082;19.306;2022-10-15T15:47:23;16.90;;;10.43;;
47273;SDS011;33007;49.082;19.306;2022-10-15T15:49:49;12.23;;;9.52;;
47273;SDS011;33007;49.082;19.306;2022-10-15T15:52:15;11.50;;;10.15;;
47273;SDS011;33007;49.082;19.306;2022-10-15T15:54:43;13.77;;;9.98;;
47273;SDS011;33007;49.082;19.306;2022-10-15T15:57:11;13.48;;;9.70;;
47273;SDS011;33007;49.082;19.306;2022-10-15T15:59:37;12.20;;;10.25;;
47273;SDS011;33007;49.082;19.306;2022-10-15T16:02:03;12.40;;;9.85;;
47273;SDS011;33007;49.082;19.306;2022-10-15T16:04:28;11.90;;;9.60;;
47273;SDS011;33007;49.082;19.306;2022-10-15T16:06:54;13.63;;;9.57;;
47273;SDS011;33007;49.082;19.306;2022-10-15T16:09:20;16.58;;;10.55;;
47273;SDS011;33007;49.082;19.306;2022-10-15T16:11:47;11.65;;;9.80;;
47273;SDS011;33007;49.082;19.306;2022-10-15T16:14:14;14.57;;;9.93;;
47273;SDS011;33007;49.082;19.306;2022-10-15T16:16:40;11.55;;;9.30;;
47273;SDS011;33007;49.082;19.306;2022-10-15T16:19:05;37.38;;;11.07;;
47273;SDS011;33007;49.082;19.306;2022-10-15T16:21:32;16.02;;;9.60;;
47273;SDS011;33007;49.082;19.306;2022-10-15T16:23:58;13.40;;;9.35;;
47273;SDS011;33007;49.082;19.306;2022-10-15T16:26:24;13.88;;;9.40;;